Flight Track Log - Related Links

Times and Time Zones

All times are in EST time to prevent confusion due to time zone crossing. See the N1250V flight status page for this flight to view local times or setup timezone preferences in your user account.

Time Position Orientation Groundspeed Altitude Reporting Facility
EST Latitude Longitude Course Direction KTS MPH feet Rate Location/Type
Sat 02:39:35 PM 26.1111 -81.6967 37° Northeast 177 204 4,400  Level Miami Center
Sat 02:40:35 PM 26.1475 -81.6658 37° Northeast 196 226 6,600 2,050 Climbing Miami Center
Sat 02:41:35 PM 26.2128 -81.6475 14° North 219 252 8,500 1,700 Climbing Miami Center
Sat 02:42:35 PM 26.2783 -81.6225 19° North 236 272 10,000 1,900 Climbing Miami Center
Sat 02:43:35 PM 26.3361 -81.5808 33° Northeast 242 278 12,300 2,300 Climbing Miami Center
Sat 02:44:35 PM 26.3950 -81.5692 10° North 231 266 14,600 2,000 Climbing Miami Center
Sat 02:45:35 PM 26.4594 -81.5742 356° North 224 258 16,300 1,550 Climbing Miami Center
Sat 02:46:35 PM 26.5258 -81.5928 346° North 231 266 17,700 850 Climbing Miami Center
Sat 02:47:35 PM 26.6042 -81.6169 345° North 265 305 18,000 300 Climbing Miami Center
Sat 02:48:35 PM 26.6972 -81.6439 345° North 306 352 18,300 800 Climbing Miami Center
Sat 02:49:35 PM 26.7839 -81.6756 342° North 318 366 19,600 1,200 Climbing Miami Center
Sat 02:50:35 PM 26.8689 -81.7000 346° North 318 366 20,700 1,200 Climbing Miami Center
Sat 02:51:35 PM 26.9494 -81.7242 345° North 313 360 22,000 1,150 Climbing Miami Center
Sat 02:52:35 PM 27.0239 -81.7436 347° North 308 354 23,000 1,100 Climbing Miami Center
Sat 02:53:35 PM 27.1147 -81.7756 343° North 308 354 24,200 1,150 Climbing Miami Center
Sat 02:54:35 PM 27.1972 -81.8022 344° North 308 354 25,300 1,100 Climbing Miami Center
Sat 02:55:35 PM 27.2797 -81.8314 343° North 313 360 26,400 1,050 Climbing Miami Center
Sat 02:56:35 PM 27.3539 -81.8581 342° North 308 354 27,400 1,050 Climbing Miami Center
Sat 02:57:35 PM 27.4364 -81.8872 343° North 303 349 28,500 1,050 Climbing Miami Center
Sat 02:58:35 PM 27.5169 -81.9119 345° North 303 349 29,500 1,023 Climbing Miami Center
Sat 03:00:31 PM 27.6753 -81.9742 341° North 312 359 31,500 852 Climbing Jacksonville Center
Sat 03:01:31 PM 27.7692 -81.9992 347° North 307 353 32,000 600 Climbing Jacksonville Center
Sat 03:02:31 PM 27.8528 -82.0100 353° North 314 361 32,700 650 Climbing Jacksonville Center
Sat 03:03:31 PM 27.9425 -82.0117 359° North 314 361 33,300 500 Climbing Jacksonville Center
Sat 03:04:31 PM 28.0242 -82.0461 340° North 314 361 33,700 350 Climbing Jacksonville Center
Sat 03:05:31 PM 28.0975 -82.1092 323° Northwest 309 356 34,000 150 Climbing Jacksonville Center
Sat 03:06:31 PM 28.1833 -82.1578 333° Northwest 324 373 34,000  Level Jacksonville Center
Sat 03:07:31 PM 28.2794 -82.1925 342° North 346 398 34,000  Level Jacksonville Center
Sat 03:08:31 PM 28.3797 -82.2272 343° North 359 413 34,000  Level Jacksonville Center
Sat 03:09:31 PM 28.4803 -82.2619 343° North 370 426 34,000  Level Jacksonville Center
Sat 03:10:31 PM 28.5806 -82.2992 342° North 370 426 34,000  Level Jacksonville Center
Sat 03:11:31 PM 28.6808 -82.3364 342° North 375 432 34,000  Level Jacksonville Center
Sat 03:12:31 PM 28.7686 -82.3667 343° North 370 426 34,000  Level Jacksonville Center
Sat 03:13:31 PM 28.8689 -82.4019 343° North 370 426 34,000  Level Jacksonville Center
Sat 03:14:31 PM 28.9692 -82.4392 342° North 375 432 34,000  Level Jacksonville Center
Sat 03:15:31 PM 29.0717 -82.4769 342° North 375 432 34,000  Level Jacksonville Center
Sat 03:16:31 PM 29.1742 -82.5144 342° North 380 437 34,000  Level Jacksonville Center
Sat 03:17:31 PM 29.2744 -82.5497 343° North 380 437 34,000  Level Jacksonville Center
Sat 03:18:31 PM 29.3747 -82.5828 344° North 380 437 34,000  Level Jacksonville Center
Sat 03:19:31 PM 29.4667 -82.6397 332° Northwest 380 437 34,000  Level Jacksonville Center
Sat 03:20:31 PM 29.5692 -82.7086 330° Northwest 386 444 34,000  Level Jacksonville Center
Sat 03:21:31 PM 29.6611 -82.7658 332° Northwest 376 433 34,000  Level Jacksonville Center
Sat 03:22:31 PM 29.7508 -82.8256 330° Northwest 382 440 34,000  Level Jacksonville Center
Sat 03:23:31 PM 29.8428 -82.8831 332° Northwest 382 440 34,000  Level Jacksonville Center
Sat 03:24:31 PM 29.9367 -82.9406 332° Northwest 382 440 34,000  Level Jacksonville Center
Sat 03:25:31 PM 30.0306 -82.9958 333° Northwest 382 440 34,000  Level Jacksonville Center
Sat 03:26:31 PM 30.1222 -83.0533 332° Northwest 377 434 34,000  Level Jacksonville Center
Sat 03:27:31 PM 30.2142 -83.1114 331° Northwest 372 428 34,000  Level Jacksonville Center
Sat 03:28:31 PM 30.3058 -83.1692 331° Northwest 372 428 34,000  Level Jacksonville Center
Sat 03:29:31 PM 30.3975 -83.2272 331° Northwest 372 428 34,000  Level Jacksonville Center
Sat 03:30:31 PM 30.4894 -83.2856 331° Northwest 372 428 34,000  Level Jacksonville Center
Sat 03:31:31 PM 30.5789 -83.3439 331° Northwest 372 428 34,000  Level Jacksonville Center
Sat 03:32:31 PM 30.6683 -83.4022 331° Northwest 372 428 34,000  Level Jacksonville Center
Sat 03:33:31 PM 30.7622 -83.4608 332° Northwest 372 428 34,000  Level Jacksonville Center
Sat 03:34:31 PM 30.8414 -83.5119 331° Northwest 372 428 34,000  Level Jacksonville Center
Sat 03:35:31 PM 30.9328 -83.5708 331° Northwest 367 422 34,000  Level Jacksonville Center
Sat 03:36:31 PM 31.0222 -83.6294 331° Northwest 367 422 34,000  Level Jacksonville Center
Sat 03:37:31 PM 31.1139 -83.6908 330° Northwest 372 428 34,000  Level Jacksonville Center
Sat 03:38:31 PM 31.2033 -83.7500 331° Northwest 372 428 34,000  Level Jacksonville Center
Sat 03:40:03 PM 31.3478 -83.8419 331° Northwest 363 418 34,000  Level Atlanta Center
Sat 03:41:03 PM 31.4461 -83.9075 330° Northwest 363 418 34,000  Level Atlanta Center
Sat 03:42:03 PM 31.5378 -83.9608 334° Northwest 368 423 34,000  Level Atlanta Center
Sat 03:43:03 PM 31.6506 -83.9608 360° North 368 423 34,000  Level Atlanta Center
Sat 03:44:03 PM 31.7611 -83.9606 360° North 386 444 34,000  Level Atlanta Center
Sat 03:45:03 PM 31.8636 -83.9925 345° North 385 443 34,000  Level Atlanta Center
Sat 03:46:03 PM 31.9594 -84.0436 336° Northwest 375 432 34,000  Level Atlanta Center
Sat 03:47:03 PM 32.0617 -84.0781 344° North 375 432 34,000  Level Atlanta Center
Sat 03:48:03 PM 32.1661 -84.1003 350° North 375 432 34,000  Level Atlanta Center
Sat 03:49:03 PM 32.2706 -84.1247 349° North 375 432 34,000  Level Atlanta Center
Sat 03:50:03 PM 32.3789 -84.1469 350° North 380 437 34,000  Level Atlanta Center
Sat 03:51:03 PM 32.4875 -84.1569 356° North 386 444 34,000  Level Atlanta Center
Sat 03:52:03 PM 32.5731 -84.1622 357° North 386 444 34,000  Level Atlanta Center
Sat 03:53:03 PM 32.6942 -84.1747 355° North 386 444 34,000  Level Atlanta Center
Sat 03:54:03 PM 32.8006 -84.1822 357° North 386 444 34,000  Level Atlanta Center
Sat 03:55:03 PM 32.9111 -84.1947 355° North 386 444 34,000  Level Atlanta Center
Sat 03:56:03 PM 33.0219 -84.2022 357° North 386 444 34,000  Level Atlanta Center
Sat 03:57:03 PM 33.1303 -84.2125 355° North 386 444 34,000  Level Atlanta Center
Sat 03:58:03 PM 33.2389 -84.2200 357° North 386 444 34,000  Level Atlanta Center
Sat 03:59:03 PM 33.3475 -84.2303 355° North 386 444 34,000  Level Atlanta Center
Sat 04:00:03 PM 33.4642 -84.2381 357° North 386 444 34,000  Level Atlanta Center
Sat 04:01:03 PM 33.5750 -84.2483 356° North 386 444 34,000  Level Atlanta Center
Sat 04:02:03 PM 33.6833 -84.2586 355° North 386 444 34,000  Level Atlanta Center
Sat 04:03:03 PM 33.7942 -84.2664 357° North 386 444 34,000  Level Atlanta Center
Sat 04:04:03 PM 33.9047 -84.2767 356° North 386 444 34,000  Level Atlanta Center
Sat 04:05:03 PM 34.0131 -84.2844 357° North 391 450 34,000  Level Atlanta Center
Sat 04:06:03 PM 34.1239 -84.2922 357° North 386 444 34,000  Level Atlanta Center
Sat 04:07:03 PM 34.2386 -84.2625 12° North 405 466 34,000  Level Atlanta Center
Sat 04:08:03 PM 34.3492 -84.2375 11° North 410 472 34,000  Level Atlanta Center
Sat 04:09:03 PM 34.4619 -84.2125 10° North 410 472 34,000  Level Atlanta Center
Sat 04:10:03 PM 34.5747 -84.1875 10° North 410 472 34,000  Level Atlanta Center
Sat 04:11:03 PM 34.6811 -84.1675 North 405 466 34,000  Level Atlanta Center
Sat 04:12:03 PM 34.7939 -84.1425 10° North 405 466 34,000  Level Atlanta Center
Sat 04:13:03 PM 34.9067 -84.1172 10° North 410 472 34,000  Level Atlanta Center
Sat 04:14:03 PM 35.0194 -84.0919 10° North 410 472 34,000  Level Atlanta Center
Sat 04:15:03 PM 35.1319 -84.0667 10° North 410 472 34,000  Level Atlanta Center
Sat 04:16:03 PM 35.2425 -84.0439 10° North 410 472 34,000  Level Atlanta Center
Sat 04:17:03 PM 35.3553 -84.0183 10° North 410 472 34,000  Level Atlanta Center
Sat 04:18:03 PM 35.4658 -83.9928 11° North 410 472 34,000  Level Atlanta Center
Sat 04:19:03 PM 35.5786 -83.9672 10° North 410 472 34,000  Level Atlanta Center
Sat 04:20:03 PM 35.6889 -83.9442 10° North 410 472 34,000  Level Atlanta Center
Sat 04:21:03 PM 35.7994 -83.9183 11° North 410 472 34,000  Level Atlanta Center
Sat 04:22:03 PM 35.9142 -83.8925 10° North 410 472 34,000  Level Atlanta Center
Sat 04:23:03 PM 36.0247 -83.8744 North 405 466 34,000  Level Atlanta Center
Sat 04:24:03 PM 36.1375 -83.8536 North 405 466 34,000  Level Atlanta Center
Sat 04:25:12 PM 36.2678 -83.8289 North 406 467 34,000  Level Indianapolis Center
Sat 04:26:14 PM 36.3783 -83.8094 North 404 465 34,000  Level Indianapolis Center
Sat 04:27:15 PM 36.4897 -83.7911 North 403 464 34,000  Level Indianapolis Center
Sat 04:28:17 PM 36.5992 -83.7717 North 410 472 34,000  Level Indianapolis Center
Sat 04:29:18 PM 36.7111 -83.7519 North 406 467 34,000 -341 Level Indianapolis Center
Sat 04:30:20 PM 36.8242 -83.7328 North 410 472 33,300 -1,171 Descending Indianapolis Center
Sat 04:31:21 PM 36.9642 -83.7081 North 431 496 31,600 -1,512 Descending Indianapolis Center
Sat 04:32:23 PM 37.0867 -83.6861 North 441 507 30,200 -1,415 Descending Indianapolis Center
Sat 04:33:24 PM 37.2072 -83.6639 North 438 504 28,700 -1,415 Descending Indianapolis Center
Sat 04:34:26 PM 37.3225 -83.6425 North 421 484 27,300 -1,415 Descending Indianapolis Center
Sat 04:35:27 PM 37.4367 -83.6225 North 414 476 25,800 -1,463 Descending Indianapolis Center
Sat 04:36:29 PM 37.5492 -83.6019 North 409 471 24,300 -1,463 Descending Indianapolis Center
Sat 04:37:30 PM 37.6594 -83.5892 North 400 460 22,800 -1,122 Descending Indianapolis Center
Sat 04:38:32 PM 37.7600 -83.6258 344° North 379 436 22,000 -976 Descending Indianapolis Center
Sat 04:39:33 PM 37.8617 -83.6606 345° North 377 434 20,800 -1,220 Descending Indianapolis Center
Sat 04:40:35 PM 37.9719 -83.6994 344° North 354 407 19,500 -1,171 Descending Indianapolis Center
Sat 04:41:36 PM 38.0647 -83.7319 345° North 347 399 18,400 -1,171 Descending Indianapolis Center
Sat 04:42:38 PM 38.1586 -83.7639 345° North 348 400 17,100 -1,171 Descending Indianapolis Center
Sat 04:43:39 PM 38.2517 -83.7961 345° North 346 398 16,000 -1,073 Descending Indianapolis Center
Sat 04:44:41 PM 38.3456 -83.8294 344° North 348 400 14,900 -1,073 Descending Indianapolis Center
Sat 04:45:42 PM 38.4383 -83.8625 344° North 346 398 13,800 -1,073 Descending Indianapolis Center
Sat 04:46:44 PM 38.5317 -83.8944 345° North 346 398 12,700 -878 Descending Indianapolis Center
Sat 04:47:45 PM 38.6219 -83.9292 343° North 340 391 12,000 -927 Descending Indianapolis Center
Sat 04:48:47 PM 38.6853 -83.9947 321° Northwest 308 354 10,800 -1,220 Descending Indianapolis Center
Sat 04:49:48 PM 38.7594 -84.0708 321° Northwest 288 331 9,500 -1,220 Descending Indianapolis Center
Sat 04:50:50 PM 38.8189 -84.1267 324° Northwest 273 314 8,300 -1,317 Descending Indianapolis Center
Sat 04:51:51 PM 38.8872 -84.1731 332° Northwest 275 316 6,800 -1,512 Descending Indianapolis Center
Sat 04:52:53 PM 38.9506 -84.2161 332° Northwest 265 305 5,200 -1,610 Descending Indianapolis Center
Sat 04:53:54 PM 39.0147 -84.2603 332° Northwest 262 302 3,500 -1,073 Descending Indianapolis Center
Sat 04:54:56 PM 39.0733 -84.3000 332° Northwest 255 293 3,000 -293 Descending Indianapolis Center
Sat 04:55:57 PM 39.1311 -84.3392 332° Northwest 253 291 2,900 -670 Descending Indianapolis Center
Sat 04:57:55 PM 39.1333 -84.4000 273° West 95 109 1,000 -966 Descending Cincinnati TRACON
Sat 04:59:00 PM 39.1000 -84.4167 322° Northwest  Level FlightAware Approximate
Sat 05:06:00 PM 39.1033 -84.4186 322° Northwest  Level Estimated

Login

Don't have an account? Register now (free) for customized features, flight alerts, and more!